North Star, MI (48862)

08:14 EDT le 30 octobre 2014 (GMT -0400)
Gratiot Community | Change Station
CLOSE
Current Station
Aéroport
Location: Alma,
Altitude: 751 ft
Stations météo à proximité

Alt. 751 ft 43.32 °N, 84.69 °W | Updated 20 minutes ago

Couvert
Couvert
38 ° F
Paraît 38 ° F
N
0
Vent Variable Vent de Nord

Aujourd'hui
Haut(e) -- | Bas -- ° F
--% Risque de précip.
Hier
Haut(e) -- | Bas -- ° F
Precip. -- pouce
8:10 AM 6:32 PM
Lune montante, 43% visible
Pression 30.12 pouce
Visibilité 10.0 Miles terrestres
Nuages Couvert 3300 ft
Point de rosée 37 ° F
Humidité 96%
Précipitations 0.00 pouce
Profondeur de la couche neigeuse Non disponible.
UV 0 sur 12
Pollen .10 sur 12
Qualité de l'air Non disponible.
Flu Activity Non disponible.
METAR KAMN 301154Z AUTO 00000KT 10SM OVC033 04/03 A3012 RMK AO2 T00360030

More Conditions Fewer Conditions

Pression 30.12 pouce
Visibilité 10.0 Miles terrestres
Nuages Couvert 3300 ft
Point de rosée 37 ° F
Humidité 96%
Précipitations 0.00 pouce
Profondeur de la couche neigeuse Non disponible.
UV 0 sur 12
Pollen .10 sur 12
Qualité de l'air Non disponible.
Flu Activity Non disponible.
METAR KAMN 301154Z AUTO 00000KT 10SM OVC033 04/03 A3012 RMK AO2 T00360030

More Conditions Fewer Conditions

10-Day Weather Forecast

Almanac

Astronomie

Oct. 30, 2014 Lever Coucher
Temps réel
Crépuscule civil
Crépuscule nautique
Crépuscule astronomique
Lune
Durée de lumière visible
Longueur du jour
Tomorrow will be .
, % of the Moon is Illuminated

Extrêmes aujourd'hui

State Highs State Lows

Community

WunderPhotos

Upload Photos

1,766,349 Photos téléchargées !

WunderBlogs® & News

Nearby

Qualité de l'air

  Qualité de l'air Indice de la qualité de l'air Polluant
Not available.

Épaisseur de neige

Station Depth Altitude

Activité sismique

Ville Distance Mag. Time & Date
Minimum magnitude displayed is 2.5.

Températures des eaux côtières

Lieu Température

Stations météo à proximité